ADDS METAR Data INFO
IDs: Format: Raw Decoded Include TAF

Data at: 2005 UTC 19 Oct 2017

KM19 191956Z AUTO 16008KT 10SM CLR 26/11 A3018 RMK AO2 SLP224 T02560111
KM19 191856Z AUTO VRB06KT 10SM CLR 26/12 A3020 RMK AO2 SLP230 T02560122
KM19 191756Z AUTO 21007KT 10SM CLR 24/12 A3023 RMK AO2 SLP240 T02440117 10244 20078 58013
KM19 191656Z AUTO 19008KT 10SM CLR 23/12 A3025 RMK AO2 SLP248 T02330122
KM19 191556Z AUTO 19009KT 10SM CLR 20/12 A3026 RMK AO2 SLP251 T02000117
KM19 191456Z AUTO 18006KT 10SM CLR 16/11 A3026 RMK AO2 SLP254 T01610111 51016
KM19 191356Z AUTO 17005KT 10SM CLR 13/10 A3026 RMK AO2 SLP253 T01280100
KM19 191256Z AUTO 00000KT 10SM CLR 09/08 A3023 RMK AO2 SLP245 T00940078 TSNO
KM19 191156Z AUTO 16007KT 10SM CLR 08/07 A3022 RMK AO2 SLP239 60000 T00780072 10111 20078 51010
KM19 191056Z AUTO 14006KT 10SM CLR 09/08 A3021 RMK AO2 RAB02E13 SLP236 P0000 T00890078
KM19 190956Z AUTO 12003KT 10SM CLR 08/07 A3020 RMK AO2 SLP232 T00780067
KM19 190856Z AUTO 16005KT 10SM CLR 10/08 A3019 RMK AO2 SLP226 T01000083 53007
KM19 190756Z AUTO 17005KT 10SM CLR 10/08 A3018 RMK AO2 SLP223 T01000083
KM19 190656Z AUTO 17008KT 10SM CLR 11/08 A3017 RMK AO2 SLP220 T01110083
KM19 190456Z AUTO 17005KT 10SM CLR 11/08 A3017 RMK AO2 SLP223 T01110083 402440056
KM19 190356Z AUTO 14005KT 10SM CLR 12/09 A3017 RMK AO2 SLP223 T01220089
KM19 190256Z AUTO 16005KT 10SM CLR 13/09 A3018 RMK AO2 SLP224 T01280089 52003
KM19 190156Z AUTO 16007KT 10SM CLR 13/09 A3017 RMK AO2 SLP223 T01330094
KM19 190056Z AUTO 17007KT 10SM CLR 15/10 A3017 RMK AO2 SLP223 T01500100
KM19 182356Z AUTO 17006KT 10SM CLR 17/10 A3017 RMK AO2 SLP222 T01670100 10244 20167 53006
KM19 182256Z AUTO 16009KT 10SM CLR 22/10 A3016 RMK AO2 SLP217 T02170100
KM19 182156Z AUTO 18010KT 10SM CLR 24/09 A3015 RMK AO2 SLP215 T02390094
KM19 182056Z AUTO 19012KT 10SM CLR 24/09 A3015 RMK AO2 SLP214 T02440094 56022
KM19 181856Z AUTO 21009G15KT 10SM CLR 23/10 A3018 RMK AO2 SLP225 T02330100
KM19 181756Z AUTO 18013KT 10SM CLR 22/10 A3021 RMK AO2 SLP237 T02220100 10222 20056 58017
KM19 181656Z AUTO 19011KT 10SM CLR 21/09 A3024 RMK AO2 SLP247 T02060094
KM19 181556Z AUTO 19014KT 10SM CLR 19/09 A3026 RMK AO2 SLP253 T01890094
KM19 181456Z AUTO 20010KT 10SM CLR 16/11 A3026 RMK AO2 SLP255 T01560106 53010
KM19 181356Z AUTO 19004KT 10SM CLR 12/09 A3025 RMK AO2 SLP252 T01170094
KM19 181256Z AUTO 14004KT 7SM CLR 07/07 A3024 RMK AO2 SLP247 T00670067 TSNO
KM19 181156Z AUTO 00000KT 10SM CLR 06/05 A3023 RMK AO2 SLP245 T00560050 10089 20056 51005
KM19 181056Z AUTO 00000KT 10SM CLR 07/06 A3023 RMK AO2 SLP243 T00670056
KM19 180956Z AUTO 00000KT 10SM CLR 07/06 A3022 RMK AO2 SLP239 T00670061
KM19 180856Z AUTO 00000KT 9SM CLR 07/06 A3022 RMK AO2 SLP238 T00670061 58001